Time;durP1;ratioP1;P1;durP2;ratioP2;P2;SDS_P1;SDS_P2;PMS_P1;PMS_P2;Temp;Humidity;BMP_temperature;BMP_pressure;BME280_temperature;BME280_humidity;BME280_pressure;Samples;Min_cycle;Max_cycle;Signal;HPM_P1;HPM_P2
2023/04/13 00:03:03;;;;;;;4.30;2.20;;;;;;;6.08;95.27;99827.06;6152939;28;20238;-73
2023/04/13 00:06:24;;;;;;;4.10;3.13;;;;;;;6.01;95.24;99831.31;6139419;28;20516;-74
2023/04/13 00:09:46;;;;;;;3.60;3.00;;;;;;;6.01;95.34;99825.28;6148105;28;20570;-74
2023/04/13 00:13:08;;;;;;;4.47;2.43;;;;;;;5.94;95.69;99827.72;6163455;28;20242;-74
2023/04/13 00:16:33;;;;;;;4.63;2.73;;;;;;;5.84;96.30;99827.84;6163328;28;20233;-75
2023/04/13 00:19:56;;;;;;;2.30;2.10;;;;;;;5.89;96.43;99830.00;6148218;28;20254;-75
2023/04/13 00:23:17;;;;;;;4.93;1.80;;;;;;;5.94;96.31;99832.13;6169556;28;20254;-73
2023/04/13 00:26:38;;;;;;;5.70;3.60;;;;;;;5.87;96.14;99829.34;6161485;28;20320;-74
2023/04/13 00:29:59;;;;;;;3.00;1.67;;;;;;;5.90;96.30;99830.81;6159816;28;20283;-75
2023/04/13 00:33:22;;;;;;;3.83;2.90;;;;;;;5.78;96.69;99825.06;6168235;28;20608;-73
2023/04/13 00:36:42;;;;;;;2.30;2.10;;;;;;;5.79;96.53;99818.84;6166870;28;20607;-74
2023/04/13 00:40:04;;;;;;;4.00;2.80;;;;;;;5.81;96.76;99820.31;6139434;28;20231;-75
2023/04/13 00:43:26;;;;;;;5.40;2.57;;;;;;;5.89;95.98;99819.53;6167164;28;20286;-73
2023/04/13 00:46:47;;;;;;;7.00;4.00;;;;;;;5.84;96.42;99825.25;6146107;28;20663;-73
2023/04/13 00:50:10;;;;;;;11.47;7.97;;;;;;;5.79;96.28;99821.47;6150000;28;20544;-74
2023/04/13 00:53:32;;;;;;;7.93;5.90;;;;;;;5.72;96.81;99812.63;6174589;28;20595;-73
2023/04/13 00:56:53;;;;;;;6.43;4.47;;;;;;;5.52;97.49;99817.34;6140855;28;20321;-73
2023/04/13 01:00:16;;;;;;;4.97;4.50;;;;;;;5.48;97.91;99819.44;6148910;28;20250;-73
2023/04/13 01:03:38;;;;;;;5.70;4.93;;;;;;;5.53;97.59;99818.97;6164324;28;20234;-73
2023/04/13 01:07:08;;;;;;;7.03;4.23;;;;;;;5.53;97.19;99818.16;6142082;28;20658;-74
2023/04/13 01:10:36;;;;;;;4.73;3.20;;;;;;;5.54;96.99;99817.19;6162017;28;20505;-73
2023/04/13 01:14:03;;;;;;;4.00;2.73;;;;;;;5.46;97.38;99816.19;6168929;28;20238;-73
2023/04/13 01:17:29;;;;;;;4.13;3.80;;;;;;;5.55;97.29;99817.03;6151123;28;20235;-74
2023/04/13 01:20:52;;;;;;;6.43;3.43;;;;;;;5.53;96.88;99818.97;6141371;28;20837;-74
2023/04/13 01:24:29;;;;;;;5.00;2.73;;;;;;;5.39;97.30;99824.84;6153655;28;20238;-74
2023/04/13 01:27:58;;;;;;;4.73;4.30;;;;;;;5.35;97.52;99828.75;6135588;28;20490;-74
2023/04/13 01:31:21;;;;;;;4.77;3.70;;;;;;;5.41;97.26;99820.28;6153920;28;20233;-74
2023/04/13 01:34:44;;;;;;;4.87;4.03;;;;;;;5.36;97.38;99817.31;6140942;28;20246;-74
2023/04/13 01:38:07;;;;;;;5.33;3.43;;;;;;;5.44;97.09;99812.09;6153104;28;20235;-75
2023/04/13 01:41:28;;;;;;;7.90;4.03;;;;;;;5.35;96.79;99810.44;6165653;28;20226;-74
2023/04/13 01:44:51;;;;;;;4.20;2.90;;;;;;;5.33;97.11;99807.16;6150689;28;20230;-74
2023/04/13 01:48:20;;;;;;;4.97;3.93;;;;;;;5.30;97.45;99803.06;6149752;28;20531;-75
2023/04/13 01:51:57;;;;;;;3.87;3.00;;;;;;;5.32;97.13;99805.53;6149943;28;20230;-75
2023/04/13 01:55:22;;;;;;;5.57;4.07;;;;;;;5.23;97.55;99812.53;6152425;28;20655;-74
2023/04/13 01:58:48;;;;;;;4.27;3.43;;;;;;;5.17;97.71;99810.56;6153363;28;20242;-74
2023/04/13 02:02:15;;;;;;;6.87;4.13;;;;;;;5.07;97.64;99807.25;6140934;28;20511;-74
2023/04/13 02:05:36;;;;;;;4.13;3.73;;;;;;;4.98;98.49;99808.19;6141261;28;20233;-73
2023/04/13 02:08:58;;;;;;;4.20;3.20;;;;;;;4.96;98.65;99805.75;6151904;28;20294;-73
2023/04/13 02:12:19;;;;;;;4.90;3.80;;;;;;;4.97;98.47;99809.19;6134460;28;20238;-74
2023/04/13 02:15:40;;;;;;;7.87;5.73;;;;;;;4.97;98.18;99803.97;6153507;28;20473;-74
2023/04/13 02:19:03;;;;;;;5.43;4.00;;;;;;;5.09;98.17;99810.53;6144474;28;20519;-74
2023/04/13 02:22:24;;;;;;;4.43;3.67;;;;;;;4.97;98.17;99817.81;6152397;28;20242;-73
2023/04/13 02:25:45;;;;;;;5.53;3.03;;;;;;;5.09;98.13;99818.38;6147481;28;20261;-74
2023/04/13 02:29:07;;;;;;;3.70;3.13;;;;;;;5.05;97.83;99819.66;6149806;28;20316;-73
2023/04/13 02:32:30;;;;;;;3.80;3.27;;;;;;;4.88;98.89;99825.81;6146023;28;20235;-73
2023/04/13 02:35:53;;;;;;;5.00;3.43;;;;;;;4.85;98.71;99826.13;6139768;28;20230;-75
2023/04/13 02:39:14;;;;;;;4.87;3.80;;;;;;;4.96;98.08;99826.69;6142029;28;20235;-74
2023/04/13 02:42:35;;;;;;;3.80;3.30;;;;;;;4.91;98.48;99836.78;6140154;28;24438;-74
2023/04/13 02:45:57;;;;;;;4.23;3.00;;;;;;;4.88;98.60;99838.88;6145733;28;20568;-74
2023/04/13 02:49:22;;;;;;;8.90;4.73;;;;;;;4.81;98.49;99842.13;6146546;28;20493;-74
2023/04/13 02:52:52;;;;;;;4.07;3.47;;;;;;;4.77;98.57;99835.56;6137990;28;20230;-74
2023/04/13 02:56:13;;;;;;;5.57;3.53;;;;;;;4.78;98.81;99831.16;6149508;28;20318;-73
2023/04/13 02:59:34;;;;;;;5.43;4.50;;;;;;;4.81;98.86;99841.28;6145663;28;20617;-73
2023/04/13 03:02:58;;;;;;;4.00;3.30;;;;;;;4.75;98.37;99837.50;6148732;28;20234;-73
2023/04/13 03:06:24;;;;;;;4.20;3.90;;;;;;;4.83;98.27;99831.50;6153076;28;20257;-74
2023/04/13 03:09:52;;;;;;;5.97;4.27;;;;;;;4.85;98.03;99816.47;6150439;28;20318;-74
2023/04/13 03:13:13;;;;;;;3.53;3.23;;;;;;;4.91;97.78;99815.88;6156983;28;20322;-74
2023/04/13 03:16:35;;;;;;;6.67;4.33;;;;;;;4.91;97.75;99817.66;6156885;28;20329;-73
2023/04/13 03:19:58;;;;;;;4.63;3.50;;;;;;;4.98;97.32;99814.25;6167053;28;20623;-74
2023/04/13 03:23:20;;;;;;;4.90;3.97;;;;;;;4.99;96.91;99826.34;6155760;28;20230;-74
2023/04/13 03:26:42;;;;;;;4.00;3.57;;;;;;;4.96;96.95;99824.06;6158676;28;20508;-74
2023/04/13 03:30:09;;;;;;;3.67;3.37;;;;;;;4.93;97.00;99821.75;6133751;28;20240;-73
2023/04/13 03:33:40;;;;;;;5.93;5.37;;;;;;;4.81;96.98;99817.78;6157459;28;20648;-73
2023/04/13 03:37:02;;;;;;;3.90;3.47;;;;;;;4.72;97.19;99823.94;6157137;28;20233;-73
2023/04/13 03:40:23;;;;;;;4.87;3.73;;;;;;;4.67;97.62;99824.41;6147168;28;20250;-73
2023/04/13 03:43:47;;;;;;;12.27;4.70;;;;;;;4.49;98.00;99822.84;6143017;28;20254;-73
2023/04/13 03:47:09;;;;;;;3.40;3.10;;;;;;;4.45;98.10;99828.38;6141768;28;20238;-74
2023/04/13 03:50:30;;;;;;;5.53;4.17;;;;;;;4.58;98.14;99822.72;6158449;28;20288;-75
2023/04/13 03:53:51;;;;;;;6.23;4.20;;;;;;;4.68;97.76;99822.63;6146544;28;20243;-74
2023/04/13 03:57:16;;;;;;;7.43;3.37;;;;;;;4.73;97.24;99818.56;6141542;28;20238;-74
2023/04/13 04:00:40;;;;;;;7.07;4.83;;;;;;;4.73;97.14;99820.38;6132058;28;20234;-74
2023/04/13 04:04:08;;;;;;;6.30;5.33;;;;;;;4.68;97.09;99812.97;6152301;28;20230;-74
2023/04/13 04:07:29;;;;;;;4.97;4.47;;;;;;;4.76;96.94;99814.78;6138855;28;20231;-74
2023/04/13 04:10:52;;;;;;;6.50;4.73;;;;;;;4.67;97.29;99811.34;6144016;28;20261;-74
2023/04/13 04:14:15;;;;;;;5.07;4.20;;;;;;;4.63;97.45;99817.03;6157802;28;20234;-74
2023/04/13 04:17:46;;;;;;;8.43;7.03;;;;;;;4.74;96.90;99820.19;6139185;28;20619;-74
2023/04/13 04:21:08;;;;;;;4.60;3.23;;;;;;;4.76;97.15;99820.03;6148473;28;20265;-73
2023/04/13 04:24:29;;;;;;;5.57;5.07;;;;;;;4.75;96.84;99823.59;6155409;28;20239;-74
2023/04/13 04:27:56;;;;;;;5.67;3.83;;;;;;;4.74;96.96;99827.22;6137508;28;20266;-74
2023/04/13 04:31:17;;;;;;;6.00;5.13;;;;;;;4.62;97.32;99825.84;6154211;28;20547;-75
2023/04/13 04:34:42;;;;;;;4.53;3.90;;;;;;;4.78;97.49;99820.69;6157180;28;20257;-74
2023/04/13 04:38:08;;;;;;;4.20;3.80;;;;;;;4.76;96.60;99825.25;6137814;28;20243;-74
2023/04/13 04:41:30;;;;;;;5.37;4.80;;;;;;;4.81;96.92;99820.38;6158410;28;20257;-73
2023/04/13 04:44:56;;;;;;;6.73;4.40;;;;;;;4.83;96.53;99823.66;6156055;28;20254;-74
2023/04/13 04:48:19;;;;;;;7.37;4.90;;;;;;;4.86;96.78;99827.75;6149996;28;20236;-75
2023/04/13 04:51:43;;;;;;;8.70;4.40;;;;;;;5.03;95.74;99829.47;6156250;28;20324;-75
2023/04/13 04:55:08;;;;;;;5.87;4.17;;;;;;;4.90;95.74;99829.09;6146245;28;20238;-75
2023/04/13 04:58:31;;;;;;;7.57;4.53;;;;;;;4.74;96.80;99829.84;6146905;28;20599;-74
2023/04/13 05:01:52;;;;;;;10.43;5.27;;;;;;;4.99;96.56;99833.38;6127881;28;20234;-74
2023/04/13 05:05:14;;;;;;;6.37;5.60;;;;;;;5.20;96.99;99832.97;6154196;28;20222;-74
2023/04/13 05:08:36;;;;;;;4.37;3.60;;;;;;;5.55;95.61;99835.34;6154590;28;20619;-74
2023/04/13 05:11:57;;;;;;;8.13;5.33;;;;;;;5.69;94.72;99839.94;6158348;28;20263;-74
2023/04/13 05:15:19;;;;;;;5.37;4.73;;;;;;;5.76;94.15;99837.50;6148038;28;20376;-74
2023/04/13 05:18:44;;;;;;;6.67;4.53;;;;;;;5.56;93.86;99834.38;6154391;28;20234;-75
2023/04/13 05:22:08;;;;;;;6.43;4.97;;;;;;;5.75;93.55;99833.25;6130877;28;20608;-75
2023/04/13 05:25:38;;;;;;;8.70;5.03;;;;;;;5.79;93.62;99839.78;6149013;28;20320;-76
2023/04/13 05:29:03;;;;;;;8.17;4.50;;;;;;;5.79;93.13;99837.19;6148200;28;20235;-75
2023/04/13 05:32:28;;;;;;;12.77;4.83;;;;;;;5.83;92.84;99839.31;6134743;28;20239;-74
2023/04/13 05:35:53;;;;;;;5.20;4.70;;;;;;;5.81;93.66;99840.44;6149058;28;20250;-74
2023/04/13 05:39:14;;;;;;;4.93;3.83;;;;;;;5.66;93.93;99839.44;6149616;28;20226;-75
2023/04/13 05:42:37;;;;;;;6.87;5.70;;;;;;;5.75;93.58;99844.53;6160696;28;20268;-75
2023/04/13 05:45:59;;;;;;;5.67;4.20;;;;;;;6.00;93.60;99841.97;6152857;28;20225;-75
2023/04/13 05:49:20;;;;;;;5.73;4.13;;;;;;;6.18;93.31;99838.19;6137363;28;20231;-75
2023/04/13 05:52:42;;;;;;;6.53;4.17;;;;;;;6.33;91.65;99851.44;6142313;28;20239;-75
2023/04/13 05:56:03;;;;;;;3.77;3.43;;;;;;;6.24;92.77;99849.00;6146858;28;20297;-75
2023/04/13 05:59:27;;;;;;;7.70;5.30;;;;;;;6.56;91.68;99854.19;6155140;28;20344;-74
2023/04/13 06:02:49;;;;;;;5.13;4.60;;;;;;;6.71;90.57;99862.19;6162600;28;20238;-74
2023/04/13 06:06:11;;;;;;;5.73;5.13;;;;;;;6.83;89.59;99852.97;6155451;28;20532;-74
2023/04/13 06:09:32;;;;;;;5.40;3.60;;;;;;;7.09;89.17;99861.41;6148735;28;20410;-73
2023/04/13 06:12:55;;;;;;;3.13;2.83;;;;;;;6.83;89.85;99855.59;6137486;28;20537;-74
2023/04/13 06:16:17;;;;;;;5.20;3.40;;;;;;;6.71;90.51;99868.28;6145570;28;20239;-74
2023/04/13 06:19:38;;;;;;;4.77;3.00;;;;;;;6.58;92.03;99856.63;6153345;28;20227;-74
2023/04/13 06:22:59;;;;;;;3.17;2.60;;;;;;;6.54;92.16;99860.59;6117635;28;20318;-74
2023/04/13 06:26:20;;;;;;;4.00;2.93;;;;;;;6.53;92.08;99862.41;6150691;28;20226;-74
2023/04/13 06:29:46;;;;;;;4.17;2.93;;;;;;;6.61;93.12;99862.38;6137592;28;20358;-75
2023/04/13 06:33:10;;;;;;;4.23;3.57;;;;;;;6.61;92.79;99861.56;6160768;28;20870;-74
2023/04/13 06:36:31;;;;;;;4.60;2.87;;;;;;;6.69;92.10;99851.88;6149122;28;20353;-73
2023/04/13 06:39:54;;;;;;;4.43;3.33;;;;;;;6.72;92.42;99858.59;6154779;28;20933;-74
2023/04/13 06:43:14;;;;;;;5.27;4.23;;;;;;;6.77;92.58;99856.28;6156659;28;20235;-74
2023/04/13 06:46:42;;;;;;;6.97;3.27;;;;;;;6.81;92.56;99862.81;6154594;28;20316;-74
2023/04/13 06:50:12;;;;;;;6.07;4.33;;;;;;;6.96;91.37;99852.47;6146038;28;20320;-73
2023/04/13 06:53:34;;;;;;;12.47;3.07;;;;;;;7.03;91.34;99848.97;6153692;28;20239;-74
2023/04/13 06:56:55;;;;;;;3.93;3.53;;;;;;;7.14;91.16;99858.28;6142028;28;20237;-74
2023/04/13 07:00:17;;;;;;;2.77;2.50;;;;;;;7.23;90.44;99859.09;6134663;28;20540;-73
2023/04/13 07:03:38;;;;;;;5.10;3.53;;;;;;;7.25;89.22;99865.78;6155422;28;20262;-74
2023/04/13 07:07:00;;;;;;;3.20;2.13;;;;;;;7.34;89.19;99862.13;6135297;28;20230;-74
2023/04/13 07:10:21;;;;;;;2.37;2.17;;;;;;;7.49;88.46;99859.59;6143772;28;20943;-75
2023/04/13 07:13:43;;;;;;;2.73;2.53;;;;;;;7.59;87.61;99857.56;6164393;28;20238;-74
2023/04/13 07:17:07;;;;;;;2.40;1.93;;;;;;;7.68;86.56;99866.22;6154872;28;20229;-75
2023/04/13 07:20:28;;;;;;;2.50;1.80;;;;;;;7.86;86.38;99858.88;6146174;28;20230;-74
2023/04/13 07:23:50;;;;;;;2.97;1.60;;;;;;;7.85;85.68;99870.38;6157381;28;20242;-74
2023/04/13 07:27:12;;;;;;;2.13;1.27;;;;;;;7.91;85.90;99869.66;6158648;28;20348;-76
2023/04/13 07:30:33;;;;;;;3.20;2.97;;;;;;;7.96;85.29;99869.94;6148651;28;20241;-75
2023/04/13 07:33:54;;;;;;;1.40;1.30;;;;;;;8.03;84.69;99877.97;6164117;28;20242;-75
2023/04/13 07:37:22;;;;;;;2.50;2.30;;;;;;;8.25;84.29;99877.13;6150644;28;20242;-75
2023/04/13 07:40:44;;;;;;;1.27;1.17;;;;;;;8.35;83.30;99874.31;6167399;28;20690;-74
2023/04/13 07:44:07;;;;;;;2.53;2.00;;;;;;;8.31;82.22;99894.84;6160933;28;20241;-74
2023/04/13 07:47:28;;;;;;;1.63;1.53;;;;;;;8.49;82.25;99884.84;6159893;28;20258;-74
2023/04/13 07:50:54;;;;;;;0.83;0.83;;;;;;;8.88;80.94;99886.41;6145171;28;20231;-74
2023/04/13 07:54:17;;;;;;;2.73;1.67;;;;;;;8.97;80.44;99897.69;6145945;28;20550;-74
2023/04/13 07:57:41;;;;;;;0.83;0.83;;;;;;;8.63;80.81;99896.38;6155582;28;20664;-74
2023/04/13 08:01:03;;;;;;;3.23;1.60;;;;;;;8.79;79.13;99900.69;6150218;28;20241;-74
2023/04/13 08:04:24;;;;;;;1.00;1.00;;;;;;;9.00;80.00;99890.25;6157026;28;20234;-74
2023/04/13 08:07:47;;;;;;;1.37;1.27;;;;;;;8.76;79.47;99906.28;6160099;28;20238;-75
2023/04/13 08:11:09;;;;;;;1.33;1.23;;;;;;;8.74;80.47;99917.00;6171941;28;20233;-73
2023/04/13 08:14:32;;;;;;;1.03;0.80;;;;;;;8.80;80.02;99915.47;6162758;28;20238;-73
2023/04/13 08:17:53;;;;;;;2.97;2.27;;;;;;;8.85;80.28;99921.81;6147502;28;20235;-74
2023/04/13 08:21:16;;;;;;;1.60;1.00;;;;;;;9.00;79.46;99926.28;6151521;28;20226;-74
2023/04/13 08:24:40;;;;;;;1.07;1.07;;;;;;;8.80;79.19;99932.06;6164642;28;20234;-74
2023/04/13 08:28:01;;;;;;;1.33;1.23;;;;;;;8.85;78.72;99932.31;6132949;28;20550;-74
2023/04/13 08:31:24;;;;;;;1.67;1.13;;;;;;;8.98;77.65;99955.41;6151607;28;20612;-75
2023/04/13 08:34:50;;;;;;;1.27;1.17;;;;;;;9.13;77.77;99953.59;6162729;28;20242;-74
2023/04/13 08:38:11;;;;;;;0.87;0.73;;;;;;;9.02;77.27;99963.78;6167418;28;20608;-74
2023/04/13 08:41:37;;;;;;;1.37;1.33;;;;;;;8.98;77.21;99944.88;6148828;28;20235;-74
2023/04/13 08:44:59;;;;;;;0.70;0.70;;;;;;;9.11;76.40;99942.44;6169676;28;20258;-74
2023/04/13 08:48:22;;;;;;;0.83;0.83;;;;;;;9.36;75.87;99947.44;6165930;28;20230;-74
2023/04/13 08:51:46;;;;;;;0.80;0.80;;;;;;;9.56;74.97;99949.31;6164466;28;20600;-74
2023/04/13 08:55:08;;;;;;;0.90;0.90;;;;;;;9.39;68.69;99952.34;6154159;28;20242;-75
2023/04/13 08:58:33;;;;;;;0.77;0.77;;;;;;;9.17;68.98;99956.69;6166790;28;20226;-74
2023/04/13 09:01:55;;;;;;;0.80;0.80;;;;;;;9.73;68.44;99954.38;6152102;28;20226;-74
2023/04/13 09:05:22;;;;;;;2.83;0.90;;;;;;;9.40;68.75;99977.66;6151679;28;20231;-74
2023/04/13 09:08:48;;;;;;;1.97;1.60;;;;;;;9.41;69.36;99968.78;6156020;28;20254;-75
2023/04/13 09:12:09;;;;;;;3.70;1.90;;;;;;;9.59;68.39;99993.75;6153114;28;20221;-73
2023/04/13 09:15:31;;;;;;;0.90;0.77;;;;;;;9.80;65.28;99979.81;6154423;28;20238;-74
2023/04/13 09:19:05;;;;;;;0.93;0.90;;;;;;;9.75;64.39;99995.34;6160941;28;20227;-76
2023/04/13 09:22:29;;;;;;;1.67;1.10;;;;;;;9.79;63.87;99998.44;6167650;28;20235;-75
2023/04/13 09:25:52;;;;;;;0.97;0.87;;;;;;;10.03;62.41;100013.13;6159640;28;20805;-73
2023/04/13 09:29:15;;;;;;;1.00;1.00;;;;;;;9.94;62.25;100001.84;6173515;28;20359;-75
2023/04/13 09:32:36;;;;;;;1.83;1.00;;;;;;;10.29;61.86;100010.81;6163632;28;20504;-77
2023/04/13 09:35:57;;;;;;;0.70;0.70;;;;;;;9.87;62.70;100016.78;6160926;28;20242;-74
2023/04/13 09:39:26;;;;;;;1.20;1.10;;;;;;;10.40;61.24;100014.75;6162722;28;20238;-75
2023/04/13 09:42:55;;;;;;;1.73;1.63;;;;;;;10.46;60.42;100011.38;6172481;28;20233;-74
2023/04/13 09:46:15;;;;;;;0.77;0.77;;;;;;;10.23;60.46;100025.56;6152233;28;20230;-74
2023/04/13 09:49:40;;;;;;;2.03;0.90;;;;;;;10.60;60.27;100005.25;6162417;28;20227;-74
2023/04/13 09:53:01;;;;;;;3.50;0.90;;;;;;;10.28;58.82;100031.09;6150124;28;20242;-74
2023/04/13 09:56:26;;;;;;;1.27;0.87;;;;;;;10.45;57.15;100030.84;6140212;28;20347;-74
2023/04/13 09:59:47;;;;;;;0.87;0.80;;;;;;;10.65;56.05;100031.88;6150416;28;20508;-73
2023/04/13 10:03:10;;;;;;;1.00;0.73;;;;;;;10.73;56.15;100042.31;6164752;28;20285;-75
2023/04/13 10:06:37;;;;;;;0.90;0.90;;;;;;;10.94;56.01;100049.41;6161327;28;20230;-74
2023/04/13 10:09:58;;;;;;;0.90;0.90;;;;;;;11.40;53.37;100059.50;6166479;28;20238;-75
2023/04/13 10:13:23;;;;;;;0.67;0.67;;;;;;;10.79;55.04;100069.78;6163887;28;20512;-74
2023/04/13 10:17:11;;;;;;;0.90;0.80;;;;;;;10.79;56.36;100067.97;6150692;28;20230;-75
2023/04/13 10:20:34;;;;;;;1.53;1.00;;;;;;;10.86;55.83;100084.66;6153754;28;20237;-76
2023/04/13 10:23:55;;;;;;;1.17;1.03;;;;;;;10.52;55.68;100084.53;6173908;28;20246;-74
2023/04/13 10:27:18;;;;;;;2.00;1.47;;;;;;;10.39;56.95;100097.56;6153470;28;20242;-75
2023/04/13 10:30:50;;;;;;;1.83;1.37;;;;;;;10.71;58.73;100101.56;6157321;28;20229;-75
2023/04/13 10:34:11;;;;;;;1.47;1.37;;;;;;;10.70;59.49;100106.03;6168690;28;20309;-74
2023/04/13 10:37:31;;;;;;;1.40;1.30;;;;;;;10.76;58.75;100096.53;6154204;28;20510;-74
2023/04/13 10:40:53;;;;;;;1.23;1.07;;;;;;;10.87;58.18;100096.03;6154392;28;20402;-76
2023/04/13 10:44:14;;;;;;;2.20;1.00;;;;;;;11.48;56.49;100091.06;6168906;28;20247;-75
2023/04/13 10:47:37;;;;;;;0.60;0.60;;;;;;;11.37;54.87;100097.69;6167742;28;20246;-75
2023/04/13 10:50:58;;;;;;;0.60;0.60;;;;;;;10.99;54.79;100113.03;6150150;28;20500;-75
2023/04/13 10:54:19;;;;;;;1.07;1.00;;;;;;;12.27;53.08;100100.28;6161451;28;20514;-75
2023/04/13 10:57:41;;;;;;;1.33;1.00;;;;;;;11.85;52.03;100119.00;6164703;28;20226;-75
2023/04/13 11:01:02;;;;;;;2.93;1.13;;;;;;;11.92;51.12;100112.75;6161094;28;20623;-74
2023/04/13 11:04:25;;;;;;;1.10;1.00;;;;;;;11.99;49.18;100108.28;6164701;28;20238;-74
2023/04/13 11:07:47;;;;;;;1.93;1.77;;;;;;;11.17;51.64;100120.50;6163728;28;20238;-75
2023/04/13 11:11:08;;;;;;;0.73;0.73;;;;;;;11.54;50.94;100128.09;6157662;28;20237;-76
2023/04/13 11:14:29;;;;;;;1.30;1.20;;;;;;;11.17;52.29;100146.91;6166245;28;20523;-74
2023/04/13 11:17:51;;;;;;;2.07;0.87;;;;;;;11.29;56.19;100135.66;6159837;28;21077;-75
2023/04/13 11:21:17;;;;;;;1.00;1.00;;;;;;;12.00;54.35;100130.25;6157627;28;20229;-74
2023/04/13 11:24:39;;;;;;;1.90;0.80;;;;;;;12.56;52.04;100138.88;6158898;28;20235;-75
2023/04/13 11:28:02;;;;;;;0.90;0.90;;;;;;;12.92;49.70;100141.19;6147756;28;20231;-74
2023/04/13 11:31:23;;;;;;;3.50;1.10;;;;;;;13.21;48.29;100140.06;6150813;28;20223;-75
2023/04/13 11:34:45;;;;;;;1.10;1.10;;;;;;;14.22;44.59;100142.41;6162556;28;20234;-75
2023/04/13 11:38:17;;;;;;;1.73;1.40;;;;;;;12.14;48.81;100153.16;6164882;28;20230;-75
2023/04/13 11:41:41;;;;;;;1.10;1.00;;;;;;;12.88;48.01;100157.69;6155868;28;20554;-74
2023/04/13 11:45:04;;;;;;;0.83;0.83;;;;;;;15.58;41.16;100145.53;6158854;28;20267;-74
2023/04/13 11:48:26;;;;;;;1.63;1.03;;;;;;;14.71;41.88;100160.38;6169067;28;20721;-76
2023/04/13 11:51:48;;;;;;;1.43;1.33;;;;;;;13.62;44.46;100153.09;6174065;28;20321;-74
2023/04/13 11:55:11;;;;;;;1.17;1.13;;;;;;;13.11;47.18;100160.78;6152974;28;20250;-75
2023/04/13 11:58:32;;;;;;;1.30;1.20;;;;;;;13.37;46.04;100154.75;6168865;28;20242;-73
2023/04/13 12:01:53;;;;;;;1.63;0.87;;;;;;;13.51;45.63;100168.84;6166703;28;20238;-73
2023/04/13 12:05:22;;;;;;;1.43;1.33;;;;;;;16.49;40.27;100158.91;6152067;28;20234;-75
2023/04/13 12:08:43;;;;;;;0.73;0.73;;;;;;;15.52;40.16;100175.63;6165555;28;21029;-75
2023/04/13 12:12:07;;;;;;;1.20;0.90;;;;;;;13.28;44.01;100172.69;6163245;28;20506;-74
2023/04/13 12:15:29;;;;;;;0.70;0.70;;;;;;;15.44;38.84;100173.22;6156199;28;20234;-75
2023/04/13 12:18:50;;;;;;;2.42;1.63;;;;;;;17.40;34.59;100176.50;6164488;28;20301;-75
2023/04/13 12:22:11;;;;;;;0.80;0.80;;;;;;;15.46;37.93;100171.97;6175920;28;20316;-74
2023/04/13 12:25:32;;;;;;;1.00;0.95;;;;;;;16.41;35.24;100186.66;6158481;28;20280;-75
2023/04/13 12:28:56;;;;;;;1.10;1.03;;;;;;;16.92;35.00;100179.28;6169384;28;20603;-74
2023/04/13 12:32:17;;;;;;;1.33;1.23;;;;;;;20.11;29.16;100175.13;6173316;28;20510;-75
2023/04/13 12:35:38;;;;;;;0.65;0.65;;;;;;;16.85;34.51;100181.22;6159121;28;20857;-75
2023/04/13 12:38:59;;;;;;;1.95;1.42;;;;;;;16.42;35.67;100201.59;6167947;28;20227;-75
2023/04/13 12:42:20;;;;;;;1.20;1.00;;;;;;;14.30;40.46;100189.94;6176580;28;20597;-74
2023/04/13 12:45:42;;;;;;;1.10;0.80;;;;;;;13.38;43.88;100200.63;6146415;28;20238;-76
2023/04/13 12:49:03;;;;;;;0.63;0.63;;;;;;;15.72;39.09;100186.94;6165862;28;20257;-75
2023/04/13 12:52:27;;;;;;;1.00;1.00;;;;;;;14.25;41.70;100203.81;6168917;28;20231;-75
2023/04/13 12:55:47;;;;;;;0.87;0.83;;;;;;;13.56;43.95;100201.66;6149279;28;20253;-74
2023/04/13 12:59:08;;;;;;;2.23;2.03;;;;;;;13.26;45.21;100211.03;6167553;28;21066;-74
2023/04/13 13:02:31;;;;;;;1.27;1.20;;;;;;;16.22;37.77;100229.47;6163669;28;20246;-74
2023/04/13 13:05:52;;;;;;;0.80;0.80;;;;;;;12.82;45.61;100252.03;6144113;28;20238;-74
2023/04/13 13:09:12;;;;;;;1.50;1.37;;;;;;;12.73;45.89;100239.94;6169438;28;20325;-75
2023/04/13 13:12:33;;;;;;;1.40;1.13;;;;;;;12.76;46.93;100239.56;6165913;28;20242;-73
2023/04/13 13:15:54;;;;;;;1.07;1.07;;;;;;;12.71;48.02;100246.47;6160076;28;20230;-74
2023/04/13 13:19:16;;;;;;;8.70;1.70;;;;;;;13.08;47.96;100246.00;6169292;28;20234;-74
2023/04/13 13:22:38;;;;;;;1.70;1.60;;;;;;;14.62;42.94;100246.66;6166295;28;20222;-74
2023/04/13 13:25:58;;;;;;;1.60;1.53;;;;;;;14.78;42.57;100238.22;6158382;28;20229;-75
2023/04/13 13:29:22;;;;;;;2.53;1.93;;;;;;;14.16;44.20;100244.09;6168563;28;20704;-73
2023/04/13 13:32:43;;;;;;;1.20;1.20;;;;;;;13.56;45.95;100269.78;6150203;28;20238;-73
2023/04/13 13:36:06;;;;;;;1.67;1.00;;;;;;;14.88;43.40;100256.38;6144454;28;20237;-76
2023/04/13 13:39:27;;;;;;;1.63;0.93;;;;;;;13.16;45.67;100269.69;6142098;28;20266;-72
2023/04/13 13:42:47;;;;;;;3.60;2.03;;;;;;;14.26;42.97;100263.03;6147073;28;20230;-71
2023/04/13 13:46:08;;;;;;;2.50;2.30;;;;;;;13.44;44.60;100276.69;6149568;28;20234;-73
2023/04/13 13:49:32;;;;;;;2.60;2.27;;;;;;;13.54;44.83;100269.19;6146735;28;20227;-71
2023/04/13 13:52:59;;;;;;;1.50;1.40;;;;;;;13.00;46.57;100275.31;6155120;28;20250;-70
2023/04/13 13:56:21;;;;;;;1.17;1.17;;;;;;;12.86;47.63;100277.09;6171048;28;20234;-68
2023/04/13 13:59:42;;;;;;;1.30;1.20;;;;;;;12.90;47.41;100298.69;6162093;28;20313;-71
2023/04/13 14:03:03;;;;;;;1.40;1.30;;;;;;;12.43;48.58;100294.97;6149023;28;20615;-74
2023/04/13 14:06:24;;;;;;;1.87;1.37;;;;;;;12.40;48.38;100305.16;6153346;28;20241;-69
2023/04/13 14:09:46;;;;;;;1.60;1.50;;;;;;;12.40;49.35;100297.22;6158220;28;20231;-69
2023/04/13 14:13:07;;;;;;;1.40;1.30;;;;;;;12.34;49.12;100314.69;6140891;28;20298;-70
2023/04/13 14:16:28;;;;;;;1.00;1.00;;;;;;;12.14;49.47;100311.88;6140080;28;20532;-68
2023/04/13 14:19:49;;;;;;;1.20;1.20;;;;;;;12.09;50.14;100331.97;6146973;28;20231;-70
2023/04/13 14:23:10;;;;;;;1.47;1.33;;;;;;;11.98;51.52;100346.53;6148808;28;20242;-72
2023/04/13 14:26:35;;;;;;;1.10;1.10;;;;;;;11.42;56.02;100372.78;6154837;28;20226;-69
2023/04/13 14:29:56;;;;;;;0.70;0.70;;;;;;;10.79;60.07;100383.91;6158016;28;20246;-72
2023/04/13 14:33:17;;;;;;;0.50;0.50;;;;;;;10.83;61.29;100382.56;6146435;28;20230;-71
2023/04/13 14:36:38;;;;;;;2.13;0.80;;;;;;;11.01;60.57;100393.59;6141773;28;21908;-69
2023/04/13 14:39:58;;;;;;;1.03;0.60;;;;;;;10.98;59.98;100406.31;6158363;28;20634;-72
2023/04/13 14:43:20;;;;;;;0.43;0.43;;;;;;;11.15;60.88;100405.97;6136399;28;20235;-73
2023/04/13 14:46:42;;;;;;;1.03;0.63;;;;;;;11.42;57.31;100395.72;6140878;28;20230;-70
2023/04/13 14:50:03;;;;;;;1.03;0.50;;;;;;;12.12;55.36;100406.50;6134042;28;20226;-74
2023/04/13 14:53:24;;;;;;;0.40;0.40;;;;;;;11.98;54.03;100408.19;6150607;28;20226;-74
2023/04/13 14:56:44;;;;;;;1.33;0.70;;;;;;;11.34;55.83;100406.38;6138768;28;20230;-71
2023/04/13 15:00:14;;;;;;;0.70;0.70;;;;;;;11.53;55.34;100424.31;6125637;28;20235;-72
2023/04/13 15:03:35;;;;;;;0.77;0.70;;;;;;;11.39;56.78;100419.88;6145605;28;20231;-73
2023/04/13 15:06:58;;;;;;;0.60;0.60;;;;;;;11.88;56.02;100428.84;6162063;28;20254;-68
2023/04/13 15:10:20;;;;;;;0.80;0.80;;;;;;;12.62;54.53;100434.63;6135135;28;20514;-73
2023/04/13 15:13:41;;;;;;;0.73;0.73;;;;;;;13.02;53.84;100432.25;6154239;28;20230;-74
2023/04/13 15:17:05;;;;;;;1.47;1.37;;;;;;;12.54;54.09;100424.16;6149176;28;20243;-73
2023/04/13 15:20:27;;;;;;;0.70;0.70;;;;;;;12.10;56.80;100424.38;6127882;28;20233;-73
2023/04/13 15:23:48;;;;;;;0.90;0.90;;;;;;;12.18;55.50;100434.03;6169465;28;20250;-74
2023/04/13 15:27:09;;;;;;;0.80;0.80;;;;;;;12.17;55.72;100442.97;6157618;28;20226;-75
2023/04/13 15:30:33;;;;;;;1.47;0.80;;;;;;;12.81;54.68;100433.13;6144217;28;20324;-74
2023/04/13 15:33:55;;;;;;;2.10;0.80;;;;;;;12.59;54.52;100453.53;6149995;28;20227;-74
2023/04/13 15:37:16;;;;;;;0.77;0.77;;;;;;;12.25;55.33;100451.59;6137693;28;20552;-74
2023/04/13 15:40:37;;;;;;;1.40;1.30;;;;;;;12.00;56.53;100452.97;6140744;28;20565;-74
2023/04/13 15:43:59;;;;;;;0.93;0.70;;;;;;;12.04;56.52;100466.63;6153038;28;20224;-72
2023/04/13 15:47:21;;;;;;;0.83;0.83;;;;;;;12.00;56.84;100468.84;6149229;28;20523;-72
2023/04/13 15:50:43;;;;;;;2.67;0.97;;;;;;;11.93;56.11;100481.19;6137269;28;20233;-73
2023/04/13 15:54:04;;;;;;;1.17;0.90;;;;;;;12.13;54.88;100476.94;6155457;28;20239;-73
2023/04/13 15:57:25;;;;;;;1.67;1.57;;;;;;;11.99;55.92;100481.25;6155479;28;20568;-72